createdAt,value
2023-04-15T00:00:34.965Z,8.47
2023-04-15T00:01:34.967Z,8.45
2023-04-15T00:02:35.070Z,8.47
2023-04-15T00:03:35.271Z,8.47
2023-04-15T00:04:35.005Z,8.45
2023-04-15T00:05:34.900Z,8.45
2023-04-15T00:06:35.879Z,8.45
2023-04-15T00:07:34.896Z,8.44
2023-04-15T00:08:34.916Z,8.42
2023-04-15T00:09:34.851Z,8.40
2023-04-15T00:10:34.901Z,8.39
2023-04-15T00:11:34.841Z,8.35
2023-04-15T00:12:34.848Z,8.33
2023-04-15T00:13:34.883Z,8.35
2023-04-15T00:14:34.827Z,8.33
2023-04-15T00:15:35.751Z,8.32
2023-04-15T00:16:34.866Z,8.30
2023-04-15T00:17:34.830Z,8.29
2023-04-15T00:18:34.776Z,8.29
2023-04-15T00:19:34.749Z,8.29
2023-04-15T00:20:34.756Z,8.28
2023-04-15T00:21:34.722Z,8.26
2023-04-15T00:22:34.779Z,8.28
2023-04-15T00:23:34.695Z,8.26
2023-04-15T00:24:34.713Z,8.28
2023-04-15T00:25:34.686Z,8.29
2023-04-15T00:26:34.688Z,8.26
2023-04-15T00:27:34.674Z,8.29
2023-04-15T00:28:34.684Z,8.30
2023-04-15T00:29:34.622Z,8.30
2023-04-15T00:30:34.699Z,8.29
2023-04-15T00:31:34.648Z,8.29
2023-04-15T00:32:34.659Z,8.30
2023-04-15T00:33:34.576Z,8.29
2023-04-15T00:34:34.621Z,8.26
2023-04-15T00:35:34.578Z,8.22
2023-04-15T00:36:34.572Z,8.22
2023-04-15T00:37:34.572Z,8.17
2023-04-15T00:38:34.557Z,8.17
2023-04-15T00:39:34.558Z,8.17
2023-04-15T00:40:34.544Z,8.17
2023-04-15T00:41:34.536Z,8.15
2023-04-15T00:42:34.517Z,8.14
2023-04-15T00:43:34.500Z,8.11
2023-04-15T00:44:34.479Z,8.10
2023-04-15T00:45:34.542Z,8.03
2023-04-15T00:46:34.473Z,8.02
2023-04-15T00:47:35.432Z,7.97
2023-04-15T00:48:34.440Z,7.97
2023-04-15T00:49:34.415Z,7.94
2023-04-15T00:50:34.439Z,7.94
2023-04-15T00:51:34.410Z,7.93
2023-04-15T00:52:34.413Z,7.96
2023-04-15T00:53:34.379Z,7.96
2023-04-15T00:54:35.352Z,7.97
2023-04-15T00:55:35.323Z,7.99
2023-04-15T00:56:35.316Z,7.99
2023-04-15T00:57:34.332Z,7.99
2023-04-15T00:58:34.339Z,8.00
2023-04-15T00:59:34.320Z,8.00
2023-04-15T01:00:34.342Z,7.99
2023-04-15T01:01:34.310Z,8.00
2023-04-15T01:02:34.454Z,7.99
2023-04-15T01:03:40.783Z,8.00
2023-04-15T01:04:34.425Z,8.02
2023-04-15T01:05:34.229Z,7.99
2023-04-15T01:06:34.238Z,8.00
2023-04-15T01:07:34.211Z,7.99
2023-04-15T01:08:34.238Z,7.97
2023-04-15T01:09:34.208Z,7.96
2023-04-15T01:10:34.196Z,7.94
2023-04-15T01:11:34.223Z,7.96
2023-04-15T01:12:34.208Z,7.94
2023-04-15T01:13:34.163Z,7.94
2023-04-15T01:14:34.171Z,7.96
2023-04-15T01:15:34.134Z,7.94
2023-04-15T01:16:34.243Z,7.96
2023-04-15T01:17:34.106Z,7.96
2023-04-15T01:18:34.106Z,7.99
2023-04-15T01:19:34.081Z,8.02
2023-04-15T01:20:34.117Z,8.03
2023-04-15T01:21:34.049Z,8.04
2023-04-15T01:22:35.036Z,8.04
2023-04-15T01:23:34.075Z,8.04
2023-04-15T01:24:34.077Z,8.04
2023-04-15T01:25:34.018Z,8.03
2023-04-15T01:26:34.026Z,8.02
2023-04-15T01:27:33.993Z,7.99
2023-04-15T01:28:34.026Z,7.97
2023-04-15T01:29:33.989Z,7.96
2023-04-15T01:30:33.992Z,7.94
2023-04-15T01:31:34.006Z,7.96
2023-04-15T01:32:34.960Z,7.94
2023-04-15T01:33:33.950Z,7.94
2023-04-15T01:34:35.803Z,7.94
2023-04-15T01:35:33.897Z,7.94
2023-04-15T01:36:33.918Z,7.94
2023-04-15T01:37:33.899Z,7.96
2023-04-15T01:38:33.946Z,7.99
2023-04-15T01:39:33.876Z,8.00
2023-04-15T01:40:33.864Z,8.02
2023-04-15T01:41:33.827Z,8.04
2023-04-15T01:42:33.849Z,8.07
2023-04-15T01:43:33.813Z,8.08
2023-04-15T01:44:33.846Z,8.07
2023-04-15T01:45:33.791Z,8.08
2023-04-15T01:46:33.838Z,8.08
2023-04-15T01:47:33.812Z,8.07
2023-04-15T01:48:33.813Z,8.04
2023-04-15T01:49:33.738Z,8.02
2023-04-15T01:50:33.757Z,7.97
2023-04-15T01:51:33.724Z,7.96
2023-04-15T01:52:33.732Z,7.93
2023-04-15T01:53:33.722Z,7.92
2023-04-15T01:54:33.705Z,7.92
2023-04-15T01:55:33.679Z,7.93
2023-04-15T01:56:33.730Z,7.92
2023-04-15T01:57:33.670Z,7.92
2023-04-15T01:58:33.666Z,7.89
2023-04-15T01:59:33.673Z,7.89
2023-04-15T02:00:33.639Z,7.87
2023-04-15T02:01:33.662Z,7.87
2023-04-15T02:02:33.722Z,7.84
2023-04-15T02:03:33.647Z,7.85
2023-04-15T02:04:33.604Z,7.84
2023-04-15T02:05:33.592Z,7.84
2023-04-15T02:06:34.585Z,7.85
2023-04-15T02:07:33.558Z,7.89
2023-04-15T02:08:33.565Z,7.90
2023-04-15T02:09:33.594Z,7.89
2023-04-15T02:10:33.537Z,7.90
2023-04-15T02:11:33.526Z,7.90
2023-04-15T02:12:33.512Z,7.90
2023-04-15T02:13:33.487Z,7.90
2023-04-15T02:14:33.521Z,7.90
2023-04-15T02:15:33.458Z,7.90
2023-04-15T02:16:33.617Z,7.90
2023-04-15T02:17:33.476Z,7.92
2023-04-15T02:18:33.459Z,7.93
2023-04-15T02:19:33.411Z,7.94
2023-04-15T02:20:33.429Z,7.93
2023-04-15T02:21:33.411Z,7.90
2023-04-15T02:22:33.401Z,7.92
2023-04-15T02:23:33.378Z,7.92
2023-04-15T02:24:33.408Z,7.92
2023-04-15T02:25:33.345Z,7.93
2023-04-15T02:26:33.385Z,7.96
2023-04-15T02:27:33.332Z,7.96
2023-04-15T02:28:33.355Z,7.97
2023-04-15T02:29:33.344Z,7.97
2023-04-15T02:30:34.817Z,7.97
2023-04-15T02:31:33.314Z,7.96
2023-04-15T02:32:33.335Z,7.97
2023-04-15T02:33:34.217Z,7.97
2023-04-15T02:34:33.316Z,7.94
2023-04-15T02:35:33.266Z,7.96
2023-04-15T02:36:33.486Z,7.96
2023-04-15T02:37:33.232Z,7.96
2023-04-15T02:38:33.242Z,7.94
2023-04-15T02:39:33.236Z,7.97
2023-04-15T02:40:33.250Z,7.97
2023-04-15T02:41:33.186Z,7.99
2023-04-15T02:42:33.183Z,7.99
2023-04-15T02:43:33.149Z,7.97
2023-04-15T02:44:33.161Z,7.96
2023-04-15T02:45:33.153Z,7.96
2023-04-15T02:46:33.150Z,7.94
2023-04-15T02:47:33.183Z,7.93
2023-04-15T02:48:33.150Z,7.92
2023-04-15T02:49:35.802Z,7.92
2023-04-15T02:50:33.209Z,7.90
2023-04-15T02:51:33.065Z,7.89
2023-04-15T02:52:33.098Z,7.82
2023-04-15T02:53:33.043Z,7.79
2023-04-15T02:54:33.069Z,7.75
2023-04-15T02:55:33.025Z,7.71
2023-04-15T02:56:33.065Z,7.67
2023-04-15T02:57:33.041Z,7.63
2023-04-15T02:58:33.060Z,7.59
2023-04-15T02:59:33.710Z,7.58
2023-04-15T03:00:33.003Z,7.55
2023-04-15T03:01:32.996Z,7.53
2023-04-15T03:02:33.059Z,7.49
2023-04-15T03:03:33.060Z,7.44
2023-04-15T03:04:32.962Z,7.40
2023-04-15T03:05:32.923Z,7.40
2023-04-15T03:06:32.914Z,7.40
2023-04-15T03:07:32.909Z,7.38
2023-04-15T03:08:32.914Z,7.40
2023-04-15T03:09:32.862Z,7.38
2023-04-15T03:10:32.887Z,7.38
2023-04-15T03:11:33.666Z,7.38
2023-04-15T03:12:32.940Z,7.38
2023-04-15T03:13:32.854Z,7.38
2023-04-15T03:14:32.833Z,7.40
2023-04-15T03:15:32.986Z,7.38
2023-04-15T03:16:32.805Z,7.37
2023-04-15T03:17:33.779Z,7.35
2023-04-15T03:18:33.479Z,7.35
2023-04-15T03:19:32.757Z,7.35
2023-04-15T03:20:32.837Z,7.31
2023-04-15T03:21:32.823Z,7.31
2023-04-15T03:22:32.790Z,7.29
2023-04-15T03:23:33.656Z,7.27
2023-04-15T03:24:32.724Z,7.27
2023-04-15T03:25:32.716Z,7.27
2023-04-15T03:26:32.733Z,7.24
2023-04-15T03:27:33.618Z,7.26
2023-04-15T03:28:32.735Z,7.26
2023-04-15T03:29:32.647Z,7.24
2023-04-15T03:30:33.339Z,7.23
2023-04-15T03:31:32.678Z,7.22
2023-04-15T03:32:32.662Z,7.22
2023-04-15T03:33:32.620Z,7.22
2023-04-15T03:34:32.637Z,7.20
2023-04-15T03:35:32.609Z,7.19
2023-04-15T03:36:32.606Z,7.20
2023-04-15T03:37:32.551Z,7.19
2023-04-15T03:38:32.589Z,7.19
2023-04-15T03:39:32.570Z,7.17
2023-04-15T03:40:32.559Z,7.16
2023-04-15T03:41:32.536Z,7.15
2023-04-15T03:42:32.563Z,7.12
2023-04-15T03:43:32.492Z,7.12
2023-04-15T03:44:32.524Z,7.12
2023-04-15T03:45:32.454Z,7.09
2023-04-15T03:46:32.573Z,7.08
2023-04-15T03:47:32.466Z,7.08
2023-04-15T03:48:33.413Z,7.09
2023-04-15T03:49:32.436Z,7.09
2023-04-15T03:50:32.446Z,7.16
2023-04-15T03:51:32.452Z,7.16
2023-04-15T03:52:32.414Z,7.15
2023-04-15T03:53:33.364Z,7.17
2023-04-15T03:54:32.362Z,7.17
2023-04-15T03:55:32.400Z,7.19
2023-04-15T03:56:32.339Z,7.23
2023-04-15T03:57:32.374Z,7.23
2023-04-15T03:58:32.328Z,7.24
2023-04-15T03:59:32.355Z,7.27
2023-04-15T04:00:32.327Z,7.27
2023-04-15T04:01:32.329Z,7.31
2023-04-15T04:02:32.407Z,7.32
2023-04-15T04:03:32.584Z,7.37
2023-04-15T04:04:32.335Z,7.38
2023-04-15T04:05:33.737Z,7.40
2023-04-15T04:06:32.233Z,7.41
2023-04-15T04:07:32.249Z,7.42
2023-04-15T04:08:32.215Z,7.44
2023-04-15T04:09:32.258Z,7.45
2023-04-15T04:10:32.223Z,7.45
2023-04-15T04:11:32.218Z,7.47
2023-04-15T04:12:32.167Z,7.49
2023-04-15T04:13:32.188Z,7.50
2023-04-15T04:14:32.166Z,7.50
2023-04-15T04:15:32.214Z,7.50
2023-04-15T04:16:33.082Z,7.52
2023-04-15T04:17:32.220Z,7.52
2023-04-15T04:18:33.061Z,7.47
2023-04-15T04:19:33.590Z,7.45
2023-04-15T04:20:32.151Z,7.44
2023-04-15T04:21:32.098Z,7.44
2023-04-15T04:22:32.076Z,7.42
2023-04-15T04:23:32.070Z,7.41
2023-04-15T04:24:32.087Z,7.41
2023-04-15T04:25:32.079Z,7.41
2023-04-15T04:26:32.001Z,7.40
2023-04-15T04:27:32.058Z,7.41
2023-04-15T04:28:31.992Z,7.41
2023-04-15T04:29:32.006Z,7.41
2023-04-15T04:30:32.000Z,7.42
2023-04-15T04:31:31.990Z,7.45
2023-04-15T04:32:31.948Z,7.47
2023-04-15T04:33:31.952Z,7.49
2023-04-15T04:34:31.920Z,7.49
2023-04-15T04:35:31.970Z,7.50
2023-04-15T04:36:31.903Z,7.49
2023-04-15T04:37:31.912Z,7.49
2023-04-15T04:38:31.902Z,7.45
2023-04-15T04:39:31.895Z,7.42
2023-04-15T04:40:31.868Z,7.38
2023-04-15T04:41:31.871Z,7.35
2023-04-15T04:42:31.819Z,7.34
2023-04-15T04:43:31.875Z,7.32
2023-04-15T04:44:31.806Z,7.29
2023-04-15T04:45:31.892Z,7.27
2023-04-15T04:46:31.820Z,7.24
2023-04-15T04:47:31.832Z,7.22
2023-04-15T04:48:31.777Z,7.19
2023-04-15T04:49:31.772Z,7.16
2023-04-15T04:50:31.747Z,7.19
2023-04-15T04:51:31.772Z,7.17
2023-04-15T04:52:31.728Z,7.17
2023-04-15T04:53:31.751Z,7.17
2023-04-15T04:54:31.709Z,7.20
2023-04-15T04:55:32.676Z,7.20
2023-04-15T04:56:31.662Z,7.22
2023-04-15T04:57:31.713Z,7.23
2023-04-15T04:58:31.656Z,7.24
2023-04-15T04:59:31.661Z,7.24
2023-04-15T05:00:31.622Z,7.27
2023-04-15T05:01:31.658Z,7.29
2023-04-15T05:02:31.698Z,7.31
2023-04-15T05:03:31.731Z,7.34
2023-04-15T05:04:31.592Z,7.37
2023-04-15T05:05:31.605Z,7.37
2023-04-15T05:06:32.302Z,7.37
2023-04-15T05:07:31.576Z,7.41
2023-04-15T05:08:31.554Z,7.42
2023-04-15T05:09:31.552Z,7.42
2023-04-15T05:10:31.546Z,7.44
2023-04-15T05:11:31.568Z,7.45
2023-04-15T05:12:31.582Z,7.49
2023-04-15T05:13:31.543Z,7.50
2023-04-15T05:14:31.535Z,7.50
2023-04-15T05:15:31.515Z,7.53
2023-04-15T05:16:31.486Z,7.55
2023-04-15T05:17:31.509Z,7.56
2023-04-15T05:18:31.441Z,7.59
2023-04-15T05:19:31.444Z,7.59
2023-04-15T05:20:31.422Z,7.63
2023-04-15T05:21:31.412Z,7.69
2023-04-15T05:22:31.413Z,7.69
2023-04-15T05:23:31.405Z,7.72
2023-04-15T05:24:31.441Z,7.74
2023-04-15T05:25:31.423Z,7.78
2023-04-15T05:26:31.352Z,7.82
2023-04-15T05:27:31.384Z,7.84
2023-04-15T05:28:32.277Z,7.89
2023-04-15T05:29:31.345Z,7.92
2023-04-15T05:30:31.313Z,7.93
2023-04-15T05:31:31.375Z,7.96
2023-04-15T05:32:31.360Z,7.96
2023-04-15T05:33:31.295Z,7.97
2023-04-15T05:34:31.260Z,8.00
2023-04-15T05:35:31.278Z,7.99
2023-04-15T05:36:31.214Z,8.00
2023-04-15T05:37:31.249Z,8.00
2023-04-15T05:38:31.235Z,8.00
2023-04-15T05:39:31.234Z,8.04
2023-04-15T05:40:31.209Z,8.04
2023-04-15T05:41:31.216Z,8.10
2023-04-15T05:42:31.180Z,8.10
2023-04-15T05:43:31.166Z,8.11
2023-04-15T05:44:31.191Z,8.14
2023-04-15T05:45:31.168Z,8.14
2023-04-15T05:46:31.212Z,8.15
2023-04-15T05:47:31.150Z,8.18
2023-04-15T05:48:31.109Z,8.20
2023-04-15T05:49:31.134Z,8.20
2023-04-15T05:50:31.104Z,8.22
2023-04-15T05:51:31.106Z,8.22
2023-04-15T05:52:31.118Z,8.25
2023-04-15T05:53:31.121Z,8.22
2023-04-15T05:54:31.027Z,8.25
2023-04-15T05:55:31.061Z,8.25
2023-04-15T05:56:31.011Z,8.25
2023-04-15T05:57:31.030Z,8.25
2023-04-15T05:58:30.991Z,8.25
2023-04-15T05:59:30.984Z,8.25
2023-04-15T06:00:30.982Z,8.28
2023-04-15T06:01:30.987Z,8.28
2023-04-15T06:02:31.054Z,8.25
2023-04-15T06:03:31.067Z,8.21
2023-04-15T06:04:30.993Z,8.20
2023-04-15T06:05:31.035Z,8.18
2023-04-15T06:06:30.892Z,8.20
2023-04-15T06:07:30.940Z,8.18
2023-04-15T06:08:30.862Z,8.18
2023-04-15T06:09:31.844Z,8.20
2023-04-15T06:10:30.856Z,8.17
2023-04-15T06:11:30.891Z,8.20
2023-04-15T06:12:30.845Z,8.18
2023-04-15T06:13:30.836Z,8.20
2023-04-15T06:14:30.822Z,8.21
2023-04-15T06:15:30.832Z,8.22
2023-04-15T06:16:30.805Z,8.22
2023-04-15T06:17:30.838Z,8.21
2023-04-15T06:18:30.770Z,8.22
2023-04-15T06:19:30.780Z,8.21
2023-04-15T06:20:30.737Z,8.18
2023-04-15T06:21:30.755Z,8.20
2023-04-15T06:22:30.727Z,8.20
2023-04-15T06:23:30.722Z,8.18
2023-04-15T06:24:30.686Z,8.20
2023-04-15T06:25:30.719Z,8.21
2023-04-15T06:26:30.673Z,8.21
2023-04-15T06:27:30.683Z,8.21
2023-04-15T06:28:30.644Z,8.20
2023-04-15T06:29:30.685Z,8.17
2023-04-15T06:30:30.660Z,8.14
2023-04-15T06:31:30.698Z,8.17
2023-04-15T06:32:30.639Z,8.11
2023-04-15T06:33:30.630Z,8.03
2023-04-15T06:34:30.594Z,8.02
2023-04-15T06:35:30.595Z,8.02
2023-04-15T06:36:30.564Z,8.02
2023-04-15T06:37:30.585Z,8.04
2023-04-15T06:38:30.546Z,8.07
2023-04-15T06:39:30.550Z,8.08
2023-04-15T06:40:30.557Z,8.10
2023-04-15T06:41:30.525Z,8.14
2023-04-15T06:42:31.450Z,8.12
2023-04-15T06:43:30.504Z,8.10
2023-04-15T06:44:32.622Z,8.07
2023-04-15T06:45:30.518Z,8.08
2023-04-15T06:46:30.448Z,8.08
2023-04-15T06:47:30.504Z,8.10
2023-04-15T06:48:30.422Z,8.10
2023-04-15T06:49:30.447Z,8.11
2023-04-15T06:50:30.404Z,8.11
2023-04-15T06:51:30.418Z,8.11
2023-04-15T06:52:30.374Z,8.11
2023-04-15T06:53:30.394Z,8.12
2023-04-15T06:54:30.356Z,8.12
2023-04-15T06:55:30.369Z,8.14
2023-04-15T06:56:30.333Z,8.15
2023-04-15T06:57:30.349Z,8.15
2023-04-15T06:58:30.332Z,8.15
2023-04-15T06:59:30.312Z,8.15
2023-04-15T07:00:30.299Z,8.15
2023-04-15T07:01:30.328Z,8.12
2023-04-15T07:02:30.356Z,8.12
2023-04-15T07:03:32.575Z,8.15
2023-04-15T07:04:30.294Z,8.15
2023-04-15T07:05:30.267Z,8.15
2023-04-15T07:06:30.209Z,8.18
2023-04-15T07:07:31.195Z,8.21
2023-04-15T07:08:30.218Z,8.22
2023-04-15T07:09:30.232Z,8.25
2023-04-15T07:10:30.195Z,8.28
2023-04-15T07:11:30.190Z,8.29
2023-04-15T07:12:30.145Z,8.32
2023-04-15T07:13:30.161Z,8.36
2023-04-15T07:14:30.150Z,8.37
2023-04-15T07:15:30.145Z,8.40
2023-04-15T07:16:30.248Z,8.40
2023-04-15T07:17:30.273Z,8.36
2023-04-15T07:18:30.136Z,8.36
2023-04-15T07:19:30.261Z,8.36
2023-04-15T07:20:30.064Z,8.36
2023-04-15T07:21:30.112Z,8.37
2023-04-15T07:22:31.506Z,8.37
2023-04-15T07:23:30.077Z,8.37
2023-04-15T07:24:30.016Z,8.39
2023-04-15T07:25:30.040Z,8.39
2023-04-15T07:26:30.019Z,8.40
2023-04-15T07:27:30.004Z,8.40
2023-04-15T07:28:29.988Z,8.29
2023-04-15T07:29:29.978Z,8.26
2023-04-15T07:30:29.985Z,8.22
2023-04-15T07:31:30.086Z,8.21
2023-04-15T07:32:30.933Z,8.21
2023-04-15T07:33:29.961Z,8.20
2023-04-15T07:34:31.436Z,8.20
2023-04-15T07:35:29.926Z,8.17
2023-04-15T07:36:29.903Z,8.20
2023-04-15T07:37:29.910Z,8.20
2023-04-15T07:38:29.899Z,8.20
2023-04-15T07:39:29.910Z,8.17
2023-04-15T07:40:29.835Z,8.20
2023-04-15T07:41:29.870Z,8.21
2023-04-15T07:42:29.813Z,8.25
2023-04-15T07:43:29.824Z,8.18
2023-04-15T07:44:29.831Z,8.15
2023-04-15T07:45:29.804Z,8.15
2023-04-15T07:46:29.772Z,8.14
2023-04-15T07:47:29.789Z,8.17
2023-04-15T07:48:29.744Z,8.15
2023-04-15T07:49:29.756Z,8.14
2023-04-15T07:50:29.778Z,8.10
2023-04-15T07:51:29.790Z,8.11
2023-04-15T07:52:29.701Z,8.14
2023-04-15T07:53:29.757Z,8.11
2023-04-15T07:54:29.669Z,8.12
2023-04-15T07:55:29.692Z,8.11
2023-04-15T07:56:29.657Z,8.12
2023-04-15T07:57:29.664Z,8.12
2023-04-15T07:58:29.701Z,8.14
2023-04-15T07:59:29.642Z,8.11
2023-04-15T08:00:29.627Z,8.10
2023-04-15T08:01:29.641Z,8.08
2023-04-15T08:02:29.751Z,8.03
2023-04-15T08:03:29.692Z,8.07
2023-04-15T08:04:29.743Z,8.04
2023-04-15T08:05:29.604Z,8.03
2023-04-15T08:06:29.546Z,8.04
2023-04-15T08:07:29.564Z,8.07
2023-04-15T08:08:29.556Z,8.08
2023-04-15T08:09:50.604Z,8.08
2023-04-15T08:10:29.520Z,8.07
2023-04-15T08:11:29.498Z,8.07
2023-04-15T08:12:29.473Z,8.10
2023-04-15T08:13:29.519Z,8.08
2023-04-15T08:14:29.478Z,8.11
2023-04-15T08:15:29.490Z,8.12
2023-04-15T08:16:29.481Z,8.14
2023-04-15T08:17:29.485Z,8.17
2023-04-15T08:18:29.436Z,8.15
2023-04-15T08:19:30.388Z,8.17
2023-04-15T08:20:51.445Z,8.18
2023-04-15T08:21:29.464Z,8.17
2023-04-15T08:22:29.487Z,8.18
2023-04-15T08:23:29.361Z,8.17
2023-04-15T08:24:29.365Z,8.20
2023-04-15T08:25:29.346Z,8.11
2023-04-15T08:26:29.373Z,8.08
2023-04-15T08:27:29.320Z,8.12
2023-04-15T08:28:29.321Z,8.18
2023-04-15T08:29:29.290Z,8.18
2023-04-15T08:30:29.317Z,8.21
2023-04-15T08:31:29.280Z,8.22
2023-04-15T08:32:29.340Z,8.28
2023-04-15T08:33:29.239Z,8.17
2023-04-15T08:34:29.272Z,8.14
2023-04-15T08:35:29.212Z,8.15
2023-04-15T08:36:29.235Z,8.18
2023-04-15T08:37:29.199Z,8.21
2023-04-15T08:38:29.207Z,8.25
2023-04-15T08:39:29.213Z,8.25
2023-04-15T08:40:29.188Z,8.28
2023-04-15T08:41:29.139Z,8.28
2023-04-15T08:42:29.185Z,8.26
2023-04-15T08:43:29.145Z,8.20
2023-04-15T08:44:29.144Z,8.17
2023-04-15T08:45:29.107Z,8.17
2023-04-15T08:46:29.192Z,8.12
2023-04-15T08:47:29.147Z,8.12
2023-04-15T08:48:29.109Z,8.12
2023-04-15T08:49:29.062Z,8.10
2023-04-15T08:50:29.104Z,8.10
2023-04-15T08:51:29.036Z,8.11
2023-04-15T08:52:29.048Z,8.12
2023-04-15T08:53:29.021Z,8.14
2023-04-15T08:54:29.042Z,8.18
2023-04-15T08:55:29.970Z,8.18
2023-04-15T08:56:29.987Z,8.12
2023-04-15T08:57:28.999Z,8.12
2023-04-15T08:58:28.985Z,8.11
2023-04-15T08:59:28.947Z,8.08
2023-04-15T09:00:28.984Z,8.04
2023-04-15T09:01:28.964Z,8.04
2023-04-15T09:02:29.050Z,8.07
2023-04-15T09:03:28.988Z,8.08
2023-04-15T09:04:28.909Z,8.14
2023-04-15T09:05:28.906Z,8.20
2023-04-15T09:06:28.895Z,8.25
2023-04-15T09:07:28.863Z,8.26
2023-04-15T09:08:28.903Z,8.29
2023-04-15T09:09:28.870Z,8.29
2023-04-15T09:10:28.866Z,8.28
2023-04-15T09:11:28.845Z,8.29
2023-04-15T09:12:28.824Z,8.28
2023-04-15T09:13:28.830Z,8.25
2023-04-15T09:14:28.807Z,8.25
2023-04-15T09:15:28.793Z,8.25
2023-04-15T09:16:28.800Z,8.26
2023-04-15T09:17:28.785Z,8.21
2023-04-15T09:18:28.774Z,8.20
2023-04-15T09:19:28.767Z,8.20
2023-04-15T09:20:28.743Z,8.22
2023-04-15T09:21:28.757Z,8.18
2023-04-15T09:22:28.742Z,8.12
2023-04-15T09:23:29.630Z,8.14
2023-04-15T09:24:28.683Z,8.14
2023-04-15T09:25:28.659Z,8.11
2023-04-15T09:26:28.684Z,8.11
2023-04-15T09:27:28.641Z,8.11
2023-04-15T09:28:28.716Z,8.11
2023-04-15T09:29:28.603Z,8.10
2023-04-15T09:30:28.630Z,8.10
2023-04-15T09:31:28.619Z,8.10
2023-04-15T09:32:28.670Z,8.12
2023-04-15T09:33:28.564Z,8.15
2023-04-15T09:34:28.602Z,8.15
2023-04-15T09:35:28.552Z,8.17
2023-04-15T09:36:28.557Z,8.20
2023-04-15T09:37:32.433Z,8.18
2023-04-15T09:38:28.524Z,8.18
2023-04-15T09:39:28.516Z,8.15
2023-04-15T09:40:28.520Z,8.15
2023-04-15T09:41:28.560Z,8.17
2023-04-15T09:42:29.451Z,8.18
2023-04-15T09:43:28.445Z,8.20
2023-04-15T09:44:28.496Z,8.17
2023-04-15T09:45:29.663Z,8.12
2023-04-15T09:46:28.505Z,8.12
2023-04-15T09:47:28.442Z,8.14
2023-04-15T09:48:28.420Z,8.14
2023-04-15T09:49:28.453Z,8.15
2023-04-15T09:50:28.409Z,8.17
2023-04-15T09:51:28.359Z,8.18
2023-04-15T09:52:28.387Z,8.18
2023-04-15T09:53:29.845Z,8.17
2023-04-15T09:54:28.366Z,8.11
2023-04-15T09:55:28.319Z,8.08
2023-04-15T09:56:28.359Z,8.08
2023-04-15T09:57:28.342Z,8.12
2023-04-15T09:58:28.306Z,8.14
2023-04-15T09:59:28.293Z,8.14
2023-04-15T10:00:28.297Z,8.17
2023-04-15T10:01:28.318Z,8.15
2023-04-15T10:02:28.339Z,8.14
2023-04-15T10:03:28.412Z,8.11
2023-04-15T10:04:28.487Z,8.04
2023-04-15T10:05:29.725Z,8.00
2023-04-15T10:06:28.238Z,7.92
2023-04-15T10:07:28.205Z,7.97
2023-04-15T10:08:28.196Z,8.00
2023-04-15T10:09:28.157Z,8.03
2023-04-15T10:10:28.181Z,8.07
2023-04-15T10:11:29.674Z,8.07
2023-04-15T10:12:28.147Z,8.08
2023-04-15T10:13:28.110Z,8.04
2023-04-15T10:14:28.146Z,8.08
2023-04-15T10:15:28.101Z,8.02
2023-04-15T10:16:28.186Z,8.02
2023-04-15T10:17:29.800Z,8.07
2023-04-15T10:18:28.116Z,8.10
2023-04-15T10:19:28.068Z,8.14
2023-04-15T10:20:28.072Z,8.15
2023-04-15T10:21:28.013Z,8.20
2023-04-15T10:22:28.034Z,8.22
2023-04-15T10:23:28.173Z,8.28
2023-04-15T10:24:28.019Z,8.33
2023-04-15T10:25:27.995Z,8.35
2023-04-15T10:26:28.001Z,8.36
2023-04-15T10:27:27.965Z,8.39
2023-04-15T10:28:27.991Z,8.42
2023-04-15T10:29:27.952Z,8.44
2023-04-15T10:30:27.954Z,8.47
2023-04-15T10:31:27.964Z,8.48
2023-04-15T10:32:27.966Z,8.51
2023-04-15T10:33:28.463Z,8.51
2023-04-15T10:34:27.902Z,8.47
2023-04-15T10:35:27.883Z,8.45
2023-04-15T10:36:27.868Z,8.47
2023-04-15T10:37:27.868Z,8.44
2023-04-15T10:38:27.870Z,8.44
2023-04-15T10:39:27.817Z,8.42
2023-04-15T10:40:27.835Z,8.44
2023-04-15T10:41:27.962Z,8.45
2023-04-15T10:42:27.809Z,8.40
2023-04-15T10:43:27.832Z,8.39
2023-04-15T10:44:27.804Z,8.37
2023-04-15T10:45:27.797Z,8.37
2023-04-15T10:46:27.819Z,8.39
2023-04-15T10:47:27.782Z,8.39
2023-04-15T10:48:27.788Z,8.39
2023-04-15T10:49:27.764Z,8.42
2023-04-15T10:50:27.726Z,8.44
2023-04-15T10:51:27.692Z,8.40
2023-04-15T10:52:27.739Z,8.37
2023-04-15T10:53:27.683Z,8.35
2023-04-15T10:54:27.712Z,8.36
2023-04-15T10:55:27.645Z,8.33
2023-04-15T10:56:27.668Z,8.28
2023-04-15T10:57:27.636Z,8.28
2023-04-15T10:58:27.640Z,8.29
2023-04-15T10:59:27.605Z,8.28
2023-04-15T11:00:27.638Z,8.32
2023-04-15T11:01:27.597Z,8.36
2023-04-15T11:02:27.865Z,8.37
2023-04-15T11:03:27.643Z,8.42
2023-04-15T11:04:27.751Z,8.44
2023-04-15T11:05:27.557Z,8.45
2023-04-15T11:06:27.561Z,8.47
2023-04-15T11:07:27.532Z,8.40
2023-04-15T11:08:27.568Z,8.42
2023-04-15T11:09:27.482Z,8.42
2023-04-15T11:10:27.502Z,8.47
2023-04-15T11:11:27.468Z,8.50
2023-04-15T11:12:27.503Z,8.50
2023-04-15T11:13:27.456Z,8.51
2023-04-15T11:14:27.460Z,8.51
2023-04-15T11:15:27.430Z,8.48
2023-04-15T11:16:27.509Z,8.50
2023-04-15T11:17:27.484Z,8.50
2023-04-15T11:18:27.420Z,8.53
2023-04-15T11:19:27.402Z,8.51
2023-04-15T11:20:27.412Z,8.48
2023-04-15T11:21:27.350Z,8.50
2023-04-15T11:22:27.358Z,8.48
2023-04-15T11:23:27.338Z,8.50
2023-04-15T11:24:27.370Z,8.51
2023-04-15T11:25:27.320Z,8.51
2023-04-15T11:26:27.331Z,8.54
2023-04-15T11:27:27.279Z,8.54
2023-04-15T11:28:27.300Z,8.53
2023-04-15T11:29:27.266Z,8.51
2023-04-15T11:30:27.310Z,8.48
2023-04-15T11:31:27.309Z,8.48
2023-04-15T11:32:27.269Z,8.48
2023-04-15T11:33:27.247Z,8.45
2023-04-15T11:34:27.243Z,8.45
2023-04-15T11:35:27.239Z,8.47
2023-04-15T11:36:27.268Z,8.48
2023-04-15T11:37:27.194Z,8.51
2023-04-15T11:38:27.190Z,8.53
2023-04-15T11:39:27.153Z,8.53
2023-04-15T11:40:27.177Z,8.53
2023-04-15T11:41:27.169Z,8.53
2023-04-15T11:42:36.250Z,8.55
2023-04-15T11:43:28.105Z,8.57
2023-04-15T11:44:27.169Z,8.57
2023-04-15T11:45:27.143Z,8.57
2023-04-15T11:46:27.108Z,8.55
2023-04-15T11:47:27.111Z,8.55
2023-04-15T11:48:27.092Z,8.55
2023-04-15T11:49:27.053Z,8.57
2023-04-15T11:50:27.067Z,8.57
2023-04-15T11:51:27.029Z,8.58
2023-04-15T11:52:27.038Z,8.57
2023-04-15T11:53:27.021Z,8.55
2023-04-15T11:54:27.039Z,8.54
2023-04-15T11:55:26.978Z,8.55
2023-04-15T11:56:26.994Z,8.55
2023-04-15T11:57:26.960Z,8.55
2023-04-15T11:58:26.967Z,8.54
2023-04-15T11:59:39.022Z,8.50
2023-04-15T12:00:27.944Z,8.51
2023-04-15T12:01:26.915Z,8.53
2023-04-15T12:02:27.022Z,8.54
2023-04-15T12:03:27.277Z,8.54
2023-04-15T12:04:27.017Z,8.57
2023-04-15T12:05:26.895Z,8.60
2023-04-15T12:06:26.902Z,8.62
2023-04-15T12:07:26.852Z,8.65
2023-04-15T12:08:26.853Z,8.68
2023-04-15T12:09:26.820Z,8.68
2023-04-15T12:10:26.876Z,8.66
2023-04-15T12:11:26.819Z,8.63
2023-04-15T12:12:26.834Z,8.63
2023-04-15T12:13:26.777Z,8.62
2023-04-15T12:14:26.867Z,8.62
2023-04-15T12:15:26.792Z,8.63
2023-04-15T12:16:26.786Z,8.60
2023-04-15T12:17:26.773Z,8.62
2023-04-15T12:18:26.750Z,8.60
2023-04-15T12:19:26.740Z,8.62
2023-04-15T12:20:26.721Z,8.62
2023-04-15T12:21:26.716Z,8.62
2023-04-15T12:22:26.693Z,8.65
2023-04-15T12:23:26.684Z,8.68
2023-04-15T12:24:26.650Z,8.71
2023-04-15T12:25:26.674Z,8.69
2023-04-15T12:26:26.655Z,8.71
2023-04-15T12:27:29.193Z,8.65
2023-04-15T12:28:26.608Z,8.60
2023-04-15T12:29:26.658Z,8.60
2023-04-15T12:30:26.585Z,8.65
2023-04-15T12:31:26.649Z,8.66
2023-04-15T12:32:26.636Z,8.69
2023-04-15T12:33:26.578Z,8.72
2023-04-15T12:34:26.558Z,8.75
2023-04-15T12:35:26.570Z,8.81
2023-04-15T12:36:26.521Z,8.79
2023-04-15T12:37:26.551Z,8.83
2023-04-15T12:38:26.527Z,8.78
2023-04-15T12:39:30.332Z,8.76
2023-04-15T12:40:26.485Z,8.75
2023-04-15T12:41:26.498Z,8.78
2023-04-15T12:42:26.460Z,8.81
2023-04-15T12:43:26.465Z,8.81
2023-04-15T12:44:26.445Z,8.79
2023-04-15T12:45:27.502Z,8.79
2023-04-15T12:46:26.469Z,8.81
2023-04-15T12:47:26.443Z,8.83
2023-04-15T12:48:26.384Z,8.84
2023-04-15T12:49:26.417Z,8.86
2023-04-15T12:50:26.370Z,8.86
2023-04-15T12:51:26.384Z,8.88
2023-04-15T12:52:26.576Z,8.86
2023-04-15T12:53:26.353Z,8.87
2023-04-15T12:54:26.320Z,8.88
2023-04-15T12:55:26.333Z,8.91
2023-04-15T12:56:26.320Z,8.90
2023-04-15T12:57:26.311Z,8.90
2023-04-15T12:58:26.294Z,8.93
2023-04-15T12:59:26.311Z,8.91
2023-04-15T13:00:26.268Z,8.90
2023-04-15T13:01:26.341Z,8.87
2023-04-15T13:02:26.421Z,8.84
2023-04-15T13:03:26.339Z,8.83
2023-04-15T13:04:26.258Z,8.83
2023-04-15T13:05:26.238Z,8.84
2023-04-15T13:06:26.204Z,8.86
2023-04-15T13:07:26.215Z,8.87
2023-04-15T13:08:26.164Z,8.88
2023-04-15T13:09:26.176Z,8.90
2023-04-15T13:10:26.144Z,8.88
2023-04-15T13:11:26.248Z,8.86
2023-04-15T13:12:26.131Z,8.87
2023-04-15T13:13:26.233Z,8.86
2023-04-15T13:14:26.129Z,8.87
2023-04-15T13:15:26.097Z,8.87
2023-04-15T13:16:26.116Z,8.88
2023-04-15T13:17:26.147Z,8.90
2023-04-15T13:18:26.054Z,8.90